createdAt,value
2023-01-19T00:01:18.869Z,94.43
2023-01-19T00:03:46.332Z,94.19
2023-01-19T00:06:13.396Z,94.56
2023-01-19T00:08:40.658Z,94.57
2023-01-19T00:11:07.929Z,94.14
2023-01-19T00:13:35.084Z,94.50
2023-01-19T00:16:02.401Z,94.74
2023-01-19T00:18:29.507Z,94.78
2023-01-19T00:20:56.544Z,94.71
2023-01-19T00:23:23.709Z,94.61
2023-01-19T00:25:51.289Z,94.98
2023-01-19T00:28:20.304Z,95.00
2023-01-19T00:30:47.400Z,94.65
2023-01-19T00:33:15.191Z,95.23
2023-01-19T00:35:43.098Z,94.86
2023-01-19T00:38:12.827Z,94.99
2023-01-19T00:40:40.380Z,94.97
2023-01-19T00:43:07.722Z,94.87
2023-01-19T00:45:35.434Z,94.70
2023-01-19T00:48:02.704Z,94.97
2023-01-19T00:50:32.671Z,95.11
2023-01-19T00:53:01.689Z,95.47
2023-01-19T00:55:31.031Z,95.45
2023-01-19T00:57:58.518Z,95.35
2023-01-19T01:00:26.579Z,94.83
2023-01-19T01:02:54.142Z,95.24
2023-01-19T01:05:22.332Z,95.62
2023-01-19T01:07:50.728Z,95.86
2023-01-19T01:10:28.002Z,96.09
2023-01-19T01:12:57.791Z,95.65
2023-01-19T01:15:43.685Z,95.43
2023-01-19T01:18:10.779Z,94.71
2023-01-19T01:20:38.140Z,95.00
2023-01-19T01:23:06.472Z,95.32
2023-01-19T01:25:37.515Z,94.58
2023-01-19T01:28:08.944Z,95.38
2023-01-19T01:30:40.142Z,95.64
2023-01-19T01:33:08.847Z,96.83
2023-01-19T01:35:35.950Z,96.30
2023-01-19T01:38:03.253Z,95.65
2023-01-19T01:40:30.407Z,96.16
2023-01-19T01:42:57.714Z,96.49
2023-01-19T01:45:37.677Z,96.21
2023-01-19T01:48:13.484Z,95.34
2023-01-19T01:51:25.867Z,95.37
2023-01-19T01:53:58.881Z,95.08
2023-01-19T01:56:35.326Z,95.79
2023-01-19T01:59:09.550Z,95.48
2023-01-19T02:01:55.855Z,95.55
2023-01-19T02:04:24.134Z,95.74
2023-01-19T02:07:10.015Z,95.42
2023-01-19T02:09:56.751Z,95.33
2023-01-19T02:12:43.437Z,96.31
2023-01-19T02:15:20.404Z,95.58
2023-01-19T02:17:48.109Z,96.06
2023-01-19T02:20:15.965Z,96.50
2023-01-19T02:22:50.074Z,95.98
2023-01-19T02:25:20.193Z,96.01
2023-01-19T02:27:50.290Z,95.84
2023-01-19T02:30:18.285Z,95.55
2023-01-19T02:32:45.676Z,95.47
2023-01-19T02:35:13.496Z,95.54
2023-01-19T02:37:42.771Z,95.60
2023-01-19T02:40:19.844Z,95.24
2023-01-19T02:42:50.871Z,94.85
2023-01-19T02:45:22.211Z,96.18
2023-01-19T02:47:52.871Z,96.07
2023-01-19T02:50:29.652Z,95.63
2023-01-19T02:53:08.500Z,95.61
2023-01-19T02:55:36.602Z,95.76
2023-01-19T02:58:20.556Z,94.98
2023-01-19T03:01:10.542Z,95.71
2023-01-19T03:03:56.499Z,95.38
2023-01-19T03:06:45.290Z,95.64
2023-01-19T03:09:24.282Z,94.57
2023-01-19T03:12:19.948Z,95.02
2023-01-19T03:14:49.108Z,94.94
2023-01-19T03:17:19.069Z,95.38
2023-01-19T03:19:50.552Z,95.64
2023-01-19T03:22:26.357Z,95.43
2023-01-19T03:24:58.698Z,95.29
2023-01-19T03:27:40.867Z,95.26
2023-01-19T03:30:22.417Z,95.74
2023-01-19T03:32:59.203Z,95.74
2023-01-19T03:35:33.310Z,95.81
2023-01-19T03:38:06.249Z,95.65
2023-01-19T03:40:36.500Z,95.44
2023-01-19T03:43:05.500Z,94.71
2023-01-19T03:45:37.020Z,94.21
2023-01-19T03:48:06.263Z,95.05
2023-01-19T03:50:33.518Z,95.19
2023-01-19T03:53:16.026Z,95.44
2023-01-19T03:55:48.606Z,96.16
2023-01-19T03:58:15.679Z,96.66
2023-01-19T04:00:42.805Z,96.54
2023-01-19T04:03:18.224Z,96.70
2023-01-19T04:05:45.939Z,97.22
2023-01-19T04:08:13.718Z,96.86
2023-01-19T04:10:41.033Z,96.60
2023-01-19T04:13:08.271Z,96.70
2023-01-19T04:15:35.661Z,96.45
2023-01-19T04:18:03.069Z,97.53
2023-01-19T04:20:30.960Z,97.43
2023-01-19T04:23:02.115Z,97.53
2023-01-19T04:25:30.314Z,98.05
2023-01-19T04:28:00.701Z,97.98
2023-01-19T04:30:28.045Z,98.12
2023-01-19T04:32:58.237Z,97.83
2023-01-19T04:35:25.931Z,97.53
2023-01-19T04:37:53.107Z,97.37
2023-01-19T04:40:20.774Z,97.58
2023-01-19T04:42:47.965Z,97.54
2023-01-19T04:45:15.361Z,98.32
2023-01-19T04:47:42.860Z,98.19
2023-01-19T04:50:11.901Z,98.29
2023-01-19T04:52:39.051Z,97.69
2023-01-19T04:55:08.081Z,97.56
2023-01-19T04:57:35.601Z,97.85
2023-01-19T05:00:03.111Z,97.43
2023-01-19T05:02:30.306Z,97.45
2023-01-19T05:04:57.460Z,97.14
2023-01-19T05:07:24.597Z,96.86
2023-01-19T05:09:51.816Z,96.66
2023-01-19T05:12:19.026Z,96.71
2023-01-19T05:14:46.222Z,96.73
2023-01-19T05:17:13.291Z,96.71
2023-01-19T05:19:40.374Z,97.00
2023-01-19T05:22:07.659Z,96.36
2023-01-19T05:24:34.829Z,96.27
2023-01-19T05:27:02.214Z,96.79
2023-01-19T05:29:29.397Z,96.93
2023-01-19T05:31:56.633Z,96.67
2023-01-19T05:34:24.377Z,96.99
2023-01-19T05:36:51.611Z,96.46
2023-01-19T05:39:18.736Z,96.29
2023-01-19T05:41:46.291Z,96.09
2023-01-19T05:44:13.783Z,96.17
2023-01-19T05:46:41.046Z,96.20
2023-01-19T05:49:08.477Z,96.54
2023-01-19T05:51:38.614Z,96.34
2023-01-19T05:54:07.376Z,96.44
2023-01-19T05:56:35.786Z,96.33
2023-01-19T05:59:02.942Z,96.12
2023-01-19T06:01:30.010Z,96.02
2023-01-19T06:03:57.453Z,96.12
2023-01-19T06:06:24.822Z,95.65
2023-01-19T06:08:51.937Z,95.52
2023-01-19T06:11:19.119Z,95.06
2023-01-19T06:13:46.946Z,95.44
2023-01-19T06:16:14.624Z,95.32
2023-01-19T06:18:41.802Z,95.80
2023-01-19T06:21:12.359Z,96.14
2023-01-19T06:23:39.565Z,95.97
2023-01-19T06:26:06.786Z,95.59
2023-01-19T06:28:33.830Z,95.53
2023-01-19T06:31:01.238Z,95.56
2023-01-19T06:33:28.854Z,95.13
2023-01-19T06:35:56.423Z,95.02
2023-01-19T06:38:23.631Z,94.41
2023-01-19T06:41:00.111Z,94.89
2023-01-19T06:43:27.256Z,94.85
2023-01-19T06:45:54.945Z,94.85
2023-01-19T06:48:22.933Z,94.72
2023-01-19T06:50:50.479Z,94.99
2023-01-19T06:53:20.739Z,94.60
2023-01-19T06:55:47.960Z,94.85
2023-01-19T06:58:16.465Z,94.62
2023-01-19T07:00:43.617Z,94.54
2023-01-19T07:03:21.497Z,94.45
2023-01-19T07:05:53.124Z,94.09
2023-01-19T07:08:20.474Z,94.10
2023-01-19T07:11:25.618Z,94.35
2023-01-19T07:13:36.965Z,95.58
2023-01-19T07:16:09.353Z,96.33
2023-01-19T07:18:38.766Z,96.05
2023-01-19T07:21:06.963Z,95.78
2023-01-19T07:23:35.068Z,96.25
2023-01-19T07:26:02.592Z,96.40
2023-01-19T07:28:31.180Z,96.29
2023-01-19T07:30:58.548Z,96.32
2023-01-19T07:33:26.295Z,96.03
2023-01-19T07:35:53.687Z,95.50
2023-01-19T07:38:21.479Z,96.09
2023-01-19T07:40:48.564Z,95.43
2023-01-19T07:43:16.054Z,95.54
2023-01-19T07:45:43.456Z,94.82
2023-01-19T07:48:10.722Z,94.92
2023-01-19T07:50:37.741Z,95.27
2023-01-19T07:53:07.561Z,95.39
2023-01-19T07:55:34.754Z,95.57
2023-01-19T07:58:04.008Z,95.71
2023-01-19T08:00:31.594Z,96.10
2023-01-19T08:03:03.377Z,95.93
2023-01-19T08:05:32.643Z,95.46
2023-01-19T08:08:00.599Z,95.45
2023-01-19T08:10:29.104Z,95.10
2023-01-19T08:12:58.270Z,95.09
2023-01-19T08:15:26.035Z,95.10
2023-01-19T08:18:01.876Z,95.41
2023-01-19T08:20:30.041Z,95.89
2023-01-19T08:23:00.575Z,96.13
2023-01-19T08:25:42.222Z,96.51
2023-01-19T08:28:11.404Z,95.76
2023-01-19T08:30:40.311Z,95.78
2023-01-19T08:33:10.724Z,95.70
2023-01-19T08:35:41.337Z,95.80
2023-01-19T08:38:10.464Z,95.71
2023-01-19T08:40:40.304Z,95.06
2023-01-19T08:43:14.650Z,95.17
2023-01-19T08:45:49.512Z,94.76
2023-01-19T08:48:24.648Z,94.43
2023-01-19T08:50:52.811Z,94.17
2023-01-19T08:53:23.784Z,94.22
2023-01-19T08:55:56.014Z,94.55
2023-01-19T08:58:23.893Z,95.64
2023-01-19T09:00:52.730Z,95.92
2023-01-19T09:03:22.725Z,95.90
2023-01-19T09:05:50.483Z,96.03
2023-01-19T09:08:17.604Z,96.62
2023-01-19T09:10:49.257Z,96.17
2023-01-19T09:13:17.671Z,96.91
2023-01-19T09:15:45.863Z,96.93
2023-01-19T09:18:16.775Z,97.05
2023-01-19T09:20:46.111Z,96.98
2023-01-19T09:23:17.255Z,97.07
2023-01-19T09:25:47.336Z,96.62
2023-01-19T09:28:17.740Z,96.14
2023-01-19T09:30:45.518Z,96.19
2023-01-19T09:33:18.707Z,96.36
2023-01-19T09:35:48.368Z,96.02
2023-01-19T09:38:16.888Z,96.58
2023-01-19T09:40:53.488Z,95.11
2023-01-19T09:43:41.757Z,94.53
2023-01-19T09:46:27.311Z,94.23
2023-01-19T09:49:04.790Z,92.83
2023-01-19T09:51:43.794Z,93.12
2023-01-19T09:54:34.170Z,92.73
2023-01-19T09:57:01.571Z,93.87
2023-01-19T09:59:33.681Z,94.34
2023-01-19T10:02:28.239Z,94.96
2023-01-19T10:05:22.118Z,95.67
2023-01-19T10:08:23.535Z,94.37
2023-01-19T10:10:56.974Z,94.69
2023-01-19T10:13:44.761Z,94.54
2023-01-19T10:16:45.977Z,94.51
2023-01-19T10:19:29.204Z,94.42
2023-01-19T10:22:03.802Z,94.82
2023-01-19T10:24:39.683Z,94.98
2023-01-19T10:27:21.855Z,95.39
2023-01-19T10:29:49.599Z,95.08
2023-01-19T10:32:35.892Z,94.92
2023-01-19T10:35:26.130Z,94.84
2023-01-19T10:37:58.513Z,95.23
2023-01-19T10:40:31.500Z,95.30
2023-01-19T10:42:59.353Z,94.96
2023-01-19T10:45:31.543Z,95.33
2023-01-19T10:48:07.266Z,96.09
2023-01-19T10:50:41.182Z,96.00
2023-01-19T10:53:22.719Z,95.95
2023-01-19T10:56:22.670Z,96.16
2023-01-19T10:58:49.973Z,96.29
2023-01-19T11:01:19.189Z,96.16
2023-01-19T11:03:46.619Z,95.45
2023-01-19T11:06:21.193Z,95.35
2023-01-19T11:08:51.878Z,95.23
2023-01-19T11:11:24.307Z,94.57
2023-01-19T11:14:22.493Z,94.35
2023-01-19T11:16:57.050Z,94.23
2023-01-19T11:19:33.402Z,93.84
2023-01-19T11:22:24.223Z,93.67
2023-01-19T11:24:51.424Z,93.49
2023-01-19T11:27:20.923Z,93.85
2023-01-19T11:29:57.129Z,94.09
2023-01-19T11:32:27.308Z,93.51
2023-01-19T11:34:54.540Z,92.63
2023-01-19T11:37:21.428Z,91.54
2023-01-19T11:39:55.377Z,91.32
2023-01-19T11:42:22.844Z,91.20
2023-01-19T11:45:01.136Z,90.80
2023-01-19T11:47:33.811Z,91.46
2023-01-19T11:50:28.387Z,90.46
2023-01-19T11:53:25.811Z,90.25
2023-01-19T11:56:14.536Z,90.41
2023-01-19T11:58:48.293Z,91.31
2023-01-19T12:01:52.181Z,91.01
2023-01-19T12:04:39.465Z,89.89
2023-01-19T12:07:10.692Z,89.85
2023-01-19T12:09:51.257Z,90.38
2023-01-19T12:12:37.950Z,90.69
2023-01-19T12:15:31.402Z,90.68
2023-01-19T12:18:02.339Z,90.21
2023-01-19T12:20:40.469Z,90.53
2023-01-19T12:23:47.609Z,90.61
2023-01-19T12:26:32.835Z,91.52
2023-01-19T12:29:15.348Z,92.06
2023-01-19T12:31:43.270Z,90.82
2023-01-19T12:34:26.049Z,90.31
2023-01-19T12:36:57.713Z,90.33
2023-01-19T12:39:26.663Z,90.04
2023-01-19T12:42:17.170Z,89.09
2023-01-19T12:44:47.176Z,89.13
2023-01-19T12:47:14.076Z,90.34
2023-01-19T12:49:46.267Z,90.97
2023-01-19T12:52:48.002Z,91.28
2023-01-19T12:55:15.049Z,91.29
2023-01-19T12:58:14.675Z,90.36
2023-01-19T13:00:44.922Z,90.70
2023-01-19T13:03:17.708Z,90.04
2023-01-19T13:05:44.652Z,89.69
2023-01-19T13:08:12.627Z,90.28
2023-01-19T13:11:05.514Z,90.22
2023-01-19T13:13:40.162Z,89.89
2023-01-19T13:16:19.186Z,90.14
2023-01-19T13:19:05.333Z,89.54
2023-01-19T13:21:39.812Z,89.19
2023-01-19T13:24:22.430Z,90.18
2023-01-19T13:26:49.479Z,90.65
2023-01-19T13:29:33.928Z,89.55
2023-01-19T13:32:24.266Z,90.60
2023-01-19T13:34:58.629Z,90.62
2023-01-19T13:37:39.971Z,91.47
2023-01-19T13:40:08.528Z,91.41
2023-01-19T13:42:41.680Z,91.57
2023-01-19T13:45:37.184Z,92.38
2023-01-19T13:48:15.097Z,92.61
2023-01-19T13:50:43.359Z,92.79
2023-01-19T13:53:21.245Z,93.25
2023-01-19T13:55:48.568Z,93.02
2023-01-19T13:58:24.141Z,92.19
2023-01-19T14:00:51.449Z,91.86
2023-01-19T14:03:23.889Z,92.24
2023-01-19T14:05:53.565Z,91.85
2023-01-19T14:08:22.385Z,90.83
2023-01-19T14:10:56.449Z,90.90
2023-01-19T14:13:25.820Z,90.33
2023-01-19T14:15:56.447Z,90.63
2023-01-19T14:18:33.292Z,90.32
2023-01-19T14:21:14.063Z,90.57
2023-01-19T14:23:52.656Z,89.75
2023-01-19T14:26:37.855Z,90.59
2023-01-19T14:29:24.227Z,91.07
2023-01-19T14:31:53.155Z,91.42
2023-01-19T14:35:04.398Z,92.45
2023-01-19T14:37:37.967Z,92.72
2023-01-19T14:40:22.468Z,92.74
2023-01-19T14:43:03.276Z,91.47
2023-01-19T14:45:43.057Z,92.15
2023-01-19T14:48:21.943Z,91.80
2023-01-19T14:51:02.762Z,91.29
2023-01-19T14:53:39.008Z,91.66
2023-01-19T14:56:07.283Z,91.54
2023-01-19T14:58:35.927Z,91.32
2023-01-19T15:01:04.723Z,90.81
2023-01-19T15:03:43.993Z,90.77
2023-01-19T15:06:21.326Z,91.02
2023-01-19T15:08:50.247Z,91.08
2023-01-19T15:11:25.138Z,91.08
2023-01-19T15:13:52.387Z,91.12
2023-01-19T15:16:20.073Z,90.86
2023-01-19T15:18:47.295Z,91.50
2023-01-19T15:21:19.614Z,91.32
2023-01-19T15:23:47.676Z,91.05
2023-01-19T15:26:19.325Z,91.37
2023-01-19T15:28:48.788Z,90.65
2023-01-19T15:31:22.797Z,90.21
2023-01-19T15:33:50.345Z,90.68
2023-01-19T15:36:20.972Z,90.33
2023-01-19T15:38:51.023Z,90.55
2023-01-19T15:41:30.117Z,90.51
2023-01-19T15:43:57.525Z,90.13
2023-01-19T15:46:26.020Z,89.60
2023-01-19T15:48:53.974Z,89.58
2023-01-19T15:51:25.591Z,89.40
2023-01-19T15:53:53.945Z,88.94
2023-01-19T15:56:27.425Z,89.15
2023-01-19T15:58:55.449Z,89.37
2023-01-19T16:01:32.252Z,88.92
2023-01-19T16:04:02.053Z,89.09
2023-01-19T16:06:30.633Z,89.44
2023-01-19T16:09:01.784Z,89.57
2023-01-19T16:11:33.109Z,89.28
2023-01-19T16:14:00.570Z,89.33
2023-01-19T16:16:28.419Z,89.19
2023-01-19T16:18:57.632Z,89.40
2023-01-19T16:21:25.153Z,89.04
2023-01-19T16:23:52.972Z,89.06
2023-01-19T16:26:30.938Z,89.53
2023-01-19T16:29:08.749Z,89.18
2023-01-19T16:31:41.096Z,89.04
2023-01-19T16:34:09.549Z,89.09
2023-01-19T16:36:40.406Z,88.84
2023-01-19T16:39:12.506Z,88.20
2023-01-19T16:41:40.916Z,88.22
2023-01-19T16:44:10.164Z,88.23
2023-01-19T16:46:44.739Z,88.32
2023-01-19T16:49:16.320Z,88.57
2023-01-19T16:51:43.544Z,88.57
2023-01-19T16:54:23.520Z,89.20
2023-01-19T16:56:50.554Z,89.00
2023-01-19T16:59:18.670Z,89.01
2023-01-19T17:01:46.912Z,88.86
2023-01-19T17:04:14.572Z,88.63
2023-01-19T17:06:41.712Z,89.13
2023-01-19T17:09:09.806Z,89.10
2023-01-19T17:11:37.479Z,89.14
2023-01-19T17:14:17.372Z,89.29
2023-01-19T17:16:44.564Z,88.76
2023-01-19T17:19:18.146Z,88.74
2023-01-19T17:21:48.733Z,89.21
2023-01-19T17:24:17.272Z,88.29
2023-01-19T17:26:46.139Z,88.72
2023-01-19T17:29:13.302Z,88.62
2023-01-19T17:31:40.802Z,88.43
2023-01-19T17:34:09.930Z,88.71
2023-01-19T17:36:37.260Z,89.17
2023-01-19T17:39:11.626Z,88.54
2023-01-19T17:41:38.974Z,88.88
2023-01-19T17:44:07.486Z,89.18
2023-01-19T17:46:38.674Z,89.44
2023-01-19T17:49:07.756Z,89.33
2023-01-19T17:51:35.245Z,89.62
2023-01-19T17:54:02.433Z,89.46
2023-01-19T17:56:33.150Z,89.90
2023-01-19T17:59:00.245Z,89.60
2023-01-19T18:01:31.013Z,89.88
2023-01-19T18:03:58.913Z,90.06
2023-01-19T18:06:26.368Z,89.55
2023-01-19T18:08:54.257Z,89.60
2023-01-19T18:11:21.856Z,89.08
2023-01-19T18:13:50.727Z,89.47
2023-01-19T18:16:28.577Z,89.60
2023-01-19T18:18:56.759Z,90.12
2023-01-19T18:21:27.459Z,90.18
2023-01-19T18:24:03.833Z,89.87
2023-01-19T18:26:34.129Z,90.12
2023-01-19T18:29:01.338Z,90.19
2023-01-19T18:31:28.735Z,90.76
2023-01-19T18:33:56.043Z,90.75
2023-01-19T18:36:23.439Z,90.89
2023-01-19T18:38:50.641Z,90.46
2023-01-19T18:41:21.223Z,90.82
2023-01-19T18:43:48.817Z,90.36
2023-01-19T18:46:16.813Z,90.36
2023-01-19T18:48:44.241Z,90.75
2023-01-19T18:51:14.191Z,90.63
2023-01-19T18:53:41.821Z,90.86
2023-01-19T18:56:12.787Z,90.63
2023-01-19T18:58:40.412Z,91.04
2023-01-19T19:01:32.424Z,91.43
2023-01-19T19:04:00.830Z,91.24
2023-01-19T19:06:28.339Z,91.39
2023-01-19T19:08:58.056Z,91.62
2023-01-19T19:11:25.994Z,91.76
2023-01-19T19:13:59.876Z,91.97
2023-01-19T19:16:27.893Z,91.51
2023-01-19T19:18:55.598Z,91.72
2023-01-19T19:21:25.579Z,91.67
2023-01-19T19:23:55.749Z,91.79
2023-01-19T19:26:25.634Z,91.99
2023-01-19T19:28:53.011Z,91.63
2023-01-19T19:31:23.050Z,92.18
2023-01-19T19:33:51.379Z,91.83
2023-01-19T19:36:20.077Z,91.04
2023-01-19T19:38:48.411Z,91.10
2023-01-19T19:41:23.720Z,91.20
2023-01-19T19:43:51.050Z,91.53
2023-01-19T19:46:21.202Z,91.73
2023-01-19T19:48:48.898Z,91.81
2023-01-19T19:51:28.241Z,91.78
2023-01-19T19:53:59.208Z,91.91
2023-01-19T19:56:29.498Z,91.38
2023-01-19T19:59:14.642Z,91.15
2023-01-19T20:01:43.821Z,91.86
2023-01-19T20:04:13.577Z,91.68
2023-01-19T20:06:44.895Z,91.84
2023-01-19T20:09:14.128Z,91.77
2023-01-19T20:11:42.820Z,91.70
2023-01-19T20:14:12.176Z,91.39
2023-01-19T20:16:39.831Z,91.61
2023-01-19T20:19:07.802Z,92.53
2023-01-19T20:21:41.844Z,92.30
2023-01-19T20:24:16.725Z,91.65
2023-01-19T20:26:47.838Z,92.14
2023-01-19T20:29:15.468Z,92.13
2023-01-19T20:31:55.783Z,91.66
2023-01-19T20:34:29.973Z,91.40
2023-01-19T20:36:58.060Z,91.41
2023-01-19T20:39:25.535Z,91.83
2023-01-19T20:41:53.021Z,91.62
2023-01-19T20:44:23.827Z,91.38
2023-01-19T20:46:52.447Z,91.25
2023-01-19T20:49:19.762Z,91.62
2023-01-19T20:51:47.192Z,91.39
2023-01-19T20:54:19.005Z,91.82
2023-01-19T20:56:46.193Z,91.62
2023-01-19T20:59:13.718Z,91.80
2023-01-19T21:01:42.281Z,91.65
2023-01-19T21:04:10.764Z,92.55
2023-01-19T21:06:38.383Z,92.12
2023-01-19T21:09:06.865Z,91.81
2023-01-19T21:11:34.453Z,92.41
2023-01-19T21:14:01.854Z,92.51
2023-01-19T21:16:33.068Z,92.54
2023-01-19T21:19:00.578Z,91.53
2023-01-19T21:21:31.965Z,91.96
2023-01-19T21:24:03.796Z,92.06
2023-01-19T21:26:33.402Z,91.98
2023-01-19T21:29:02.277Z,91.94
2023-01-19T21:31:30.195Z,92.07
2023-01-19T21:33:58.144Z,91.84
2023-01-19T21:36:25.798Z,91.78
2023-01-19T21:38:55.588Z,91.38
2023-01-19T21:41:23.186Z,91.53
2023-01-19T21:43:50.286Z,91.70
2023-01-19T21:46:29.295Z,92.07
2023-01-19T21:49:18.912Z,92.07
2023-01-19T21:51:47.998Z,92.98
2023-01-19T21:54:15.215Z,92.76
2023-01-19T21:56:43.419Z,92.70
2023-01-19T21:59:14.755Z,92.80
2023-01-19T22:01:43.002Z,92.99
2023-01-19T22:04:10.315Z,93.19
2023-01-19T22:06:38.130Z,92.97
2023-01-19T22:09:05.608Z,93.76
2023-01-19T22:11:33.084Z,93.77
2023-01-19T22:14:00.298Z,93.84
2023-01-19T22:16:28.695Z,93.63
2023-01-19T22:19:01.095Z,93.68
2023-01-19T22:21:35.750Z,93.61
2023-01-19T22:24:05.021Z,93.27
2023-01-19T22:26:34.307Z,93.16
2023-01-19T22:29:04.496Z,92.39
2023-01-19T22:31:32.530Z,92.51
2023-01-19T22:33:59.823Z,92.85
2023-01-19T22:36:31.204Z,93.10
2023-01-19T22:39:02.165Z,93.37
2023-01-19T22:41:34.141Z,93.39
2023-01-19T22:44:05.540Z,92.98
2023-01-19T22:46:35.554Z,93.20
2023-01-19T22:49:03.685Z,93.00
2023-01-19T22:51:32.414Z,92.90
2023-01-19T22:53:59.662Z,92.87
2023-01-19T22:56:30.201Z,92.80
2023-01-19T22:58:58.614Z,93.25
2023-01-19T23:01:42.114Z,93.34
2023-01-19T23:04:14.615Z,93.74
2023-01-19T23:06:42.094Z,93.75
2023-01-19T23:09:14.050Z,93.33
2023-01-19T23:11:44.822Z,93.45
2023-01-19T23:14:18.410Z,93.79
2023-01-19T23:16:47.344Z,93.95
2023-01-19T23:19:17.177Z,93.68
2023-01-19T23:21:45.305Z,93.17
2023-01-19T23:24:12.643Z,93.23
2023-01-19T23:26:39.752Z,93.34
2023-01-19T23:29:15.039Z,93.25
2023-01-19T23:31:48.669Z,93.22
2023-01-19T23:34:16.959Z,93.71
2023-01-19T23:36:45.108Z,93.28
2023-01-19T23:39:19.536Z,93.15
2023-01-19T23:41:47.111Z,93.29
2023-01-19T23:44:14.771Z,93.86
2023-01-19T23:46:42.081Z,93.09
2023-01-19T23:49:09.247Z,93.49
2023-01-19T23:51:36.453Z,93.63
2023-01-19T23:54:03.912Z,93.07
2023-01-19T23:56:34.323Z,92.88
2023-01-19T23:59:15.850Z,93.15
